Hlavní strana
METAR-TAF:

METAR-TAF

Letiště :

Vadsø, Norsko

zeměpisná šířka: 70-04N, zeměpisná délka: 029-51E, výška: 3 m

Aktuální stav počasí

Zpráva byla vytvořena před 50 minutami, v 05:50 UTC
Západní vítr 17 kt
Teplota 2°C
Vlhkost vzduchu 93%
Tlak 1018 hPa
Viditelnost 10 km a více
Skoro jasno ve výšce 1000 ft
Oblačno až skoro zataženo ve výšce 1800 ft
slabý déšť, sníh

METAR: ENVD 210550Z 28017KT 9999 -RASN FEW010 BKN018 02/01 Q1018

Čas: 07:40 (06:40 UTC)

Předpověď počasí

Zpráva byla vytvořena před 1 hodinou a 40 minutami, v 05:00 UTC
Předpověď platná od 21 v 06 UTC do 21 v 15 UTC
Západní vítr 12 kt
Viditelnost 10 km a více
Polojasno ve výšce 1500 ft
Oblačno až skoro zataženo ve výšce 2500 ft
Dočasný
od 21 v 06 UTC do 21 v 15 UTC
Severozápadní vítr 20 kt s nárazy do 30 kt
Viditelnost: 4000 m
ve výšce 1200 ft
slabé sněhové přeháňky, déšť

TAF: ENVD 210500Z 2106/2115 27012KT 9999 SCT015 BKN025 TEMPO 2106/2115 32020G30KT 4000 -SHSNRA VV012

Stav a předpovědi počasí z více než 4 000 letišť (zprávy METAR a TAF).

Červené a žluté tečky na mapě představují dostupné meteorologické stanice.

Když kurzor umístíte na tečku, zobrazí se název stanice.

Pak kliknutím zobrazíte stav a předpověď počasí.

Chcete-li změnit mapu, kliknutím na zelené tlačítko se znaménkem +mapu přiblížíte, kliknutím na zelené tlačítko se znaménkem – mapu oddálíte a kliknutím na zelené šipky přejdete na sousední mapy.


METAR-TAF: